Time;durP1;ratioP1;P1;durP2;ratioP2;P2;SDS_P1;SDS_P2;PMS_P1;PMS_P2;Temp;Humidity;BMP_temperature;BMP_pressure;BME280_temperature;BME280_humidity;BME280_pressure;Samples;Min_cycle;Max_cycle;Signal;HPM_P1;HPM_P2
2021/10/21 00:01:04;;;;;;;;;4.00;2.75;;;;;14.76;57.34;99255.47;5095377;27;46269;-65
2021/10/21 00:03:29;;;;;;;;;4.00;1.00;;;;;14.74;57.24;99270.59;5093606;27;45406;-66
2021/10/21 00:05:54;;;;;;;;;2.75;1.25;;;;;14.79;57.41;99228.00;5088547;27;45224;-65
2021/10/21 00:08:20;;;;;;;;;5.75;2.25;;;;;14.75;57.81;99259.09;5091250;27;45476;-66
2021/10/21 00:10:46;;;;;;;;;3.50;1.75;;;;;14.81;57.19;99300.19;5095176;27;46120;-65
2021/10/21 00:13:12;;;;;;;;;2.25;0.50;;;;;14.81;57.33;99242.00;5093267;27;45377;-66
2021/10/21 00:15:37;;;;;;;;;1.25;0.00;;;;;14.85;56.97;99246.19;5088338;27;45501;-65
2021/10/21 00:18:04;;;;;;;;;1.50;1.50;;;;;14.87;56.92;99269.91;5089184;27;45772;-65
2021/10/21 00:20:30;;;;;;;;;1.25;0.25;;;;;14.85;57.15;99247.97;5095246;27;46799;-66
2021/10/21 00:22:56;;;;;;;;;1.50;0.75;;;;;14.88;57.11;99213.41;5093986;27;45249;-66
2021/10/21 00:25:21;;;;;;;;;6.00;1.00;;;;;14.90;56.59;99222.13;5088276;27;45192;-66
2021/10/21 00:27:47;;;;;;;;;1.75;1.50;;;;;14.90;56.69;99212.41;5111284;27;45285;-65
2021/10/21 00:30:12;;;;;;;;;5.50;1.25;;;;;14.89;56.50;99231.88;5101046;27;47010;-66
2021/10/21 00:32:37;;;;;;;;;3.00;2.00;;;;;14.87;56.87;99262.00;5092150;27;45161;-66
2021/10/21 00:35:03;;;;;;;;;0.00;0.00;;;;;14.89;56.91;99236.28;5095322;27;45420;-66
2021/10/21 00:37:29;;;;;;;;;3.50;2.50;;;;;14.90;56.83;99260.00;5091507;27;45479;-66
2021/10/21 00:39:54;;;;;;;;;5.50;2.25;;;;;14.90;56.45;99257.34;5095198;27;46740;-66
2021/10/21 00:42:19;;;;;;;;;5.00;1.25;;;;;14.87;56.64;99262.00;5091582;27;45428;-65
2021/10/21 00:44:45;;;;;;;;;6.50;2.25;;;;;14.90;56.55;99251.22;5088015;27;45240;-66
2021/10/21 00:47:10;;;;;;;;;4.50;3.25;;;;;14.91;56.57;99276.75;5091359;27;45170;-66
2021/10/21 00:49:36;;;;;;;;;2.00;1.00;;;;;14.93;56.25;99315.38;5098274;27;46930;-66
2021/10/21 00:52:02;;;;;;;;;0.25;0.25;;;;;14.90;56.42;99302.31;5091222;27;45396;-65
2021/10/21 00:54:28;;;;;;;;;1.50;1.50;;;;;14.88;56.57;99314.78;5094866;27;45329;-65
2021/10/21 00:56:56;;;;;;;;;2.00;0.75;;;;;14.91;56.15;99298.75;5090532;27;45389;-66
2021/10/21 00:59:21;;;;;;;;;1.00;1.00;;;;;14.92;56.07;99318.97;5087926;27;45548;-65
2021/10/21 01:01:47;;;;;;;;;2.00;1.50;;;;;14.92;55.74;99297.81;5090350;27;45211;-66
2021/10/21 01:04:12;;;;;;;;;2.25;0.00;;;;;14.89;55.93;99302.41;5094770;27;45279;-65
2021/10/21 01:06:42;;;;;;;;;1.25;1.25;;;;;14.89;56.14;99268.91;5092166;27;45472;-65
2021/10/21 01:09:08;;;;;;;;;3.00;0.00;;;;;14.93;55.71;99323.31;5086451;27;46371;-66
2021/10/21 01:11:33;;;;;;;;;3.00;1.00;;;;;14.93;55.45;99256.31;5089344;27;45395;-65
2021/10/21 01:13:59;;;;;;;;;2.75;0.50;;;;;14.90;55.25;99328.75;5093106;27;45303;-65
2021/10/21 01:16:24;;;;;;;;;1.25;0.00;;;;;14.87;55.24;99297.22;5092425;27;45690;-64
2021/10/21 01:18:49;;;;;;;;;0.25;0.25;;;;;14.89;55.34;99310.34;5087346;27;45324;-65
2021/10/21 01:21:15;;;;;;;;;1.00;0.00;;;;;14.90;55.15;99355.22;5089563;27;45304;-64
2021/10/21 01:23:40;;;;;;;;;1.00;1.00;;;;;14.90;54.66;99312.06;5094363;27;45773;-64
2021/10/21 01:26:10;;;;;;;;;0.50;0.50;;;;;14.92;55.03;99321.59;5092426;27;45399;-65
2021/10/21 01:28:36;;;;;;;;;0.00;0.00;;;;;14.91;54.54;99359.56;5099213;27;46175;-65
2021/10/21 01:31:02;;;;;;;;;1.25;0.00;;;;;14.86;54.94;99403.94;5090686;27;45472;-66
2021/10/21 01:33:27;;;;;;;;;0.00;0.00;;;;;14.88;54.47;99327.13;5092812;27;45281;-66
2021/10/21 01:35:52;;;;;;;;;0.00;0.00;;;;;14.88;54.73;99361.53;5098405;27;45469;-66
2021/10/21 01:38:18;;;;;;;;;0.50;0.50;;;;;14.89;54.35;99360.59;5087172;27;45440;-65
2021/10/21 01:40:43;;;;;;;;;2.00;0.75;;;;;14.88;54.32;99367.69;5090558;27;45375;-66
2021/10/21 01:43:13;;;;;;;;;1.00;1.00;;;;;14.86;53.93;99361.63;5093894;27;45366;-65
2021/10/21 01:45:39;;;;;;;;;1.75;0.75;;;;;14.88;53.91;99388.84;5091286;27;45416;-65
2021/10/21 01:48:05;;;;;;;;;0.75;0.00;;;;;14.85;54.09;99411.94;5085456;27;47610;-66
2021/10/21 01:50:31;;;;;;;;;0.00;0.00;;;;;14.82;53.66;99430.59;5091277;27;45334;-65
2021/10/21 01:52:57;;;;;;;;;0.75;0.50;;;;;14.79;53.84;99435.13;5085803;27;45347;-65
2021/10/21 01:55:23;;;;;;;;;2.00;0.00;;;;;14.77;53.82;99441.44;5089350;27;45606;-65
2021/10/21 01:57:49;;;;;;;;;2.00;0.00;;;;;14.76;53.73;99447.66;5093453;27;46085;-65
2021/10/21 02:00:16;;;;;;;;;0.00;0.00;;;;;14.74;54.00;99434.53;5091726;27;45302;-65
2021/10/21 02:02:44;;;;;;;;;1.00;0.00;;;;;14.70;53.35;99453.28;5086752;27;45274;-65
2021/10/21 02:05:10;;;;;;;;;0.00;0.00;;;;;14.65;53.31;99490.50;5088841;27;45414;-65
2021/10/21 02:07:35;;;;;;;;;1.00;0.00;;;;;14.67;53.26;99493.94;5094051;27;45273;-66
2021/10/21 02:10:03;;;;;;;;;0.00;0.00;;;;;14.68;54.03;99497.44;5095789;27;45325;-65
2021/10/21 02:12:28;;;;;;;;;0.00;0.00;;;;;14.66;54.34;99505.44;5090290;27;45517;-65
2021/10/21 02:14:54;;;;;;;;;0.25;0.00;;;;;14.67;53.90;99516.91;5091687;27;45297;-65
2021/10/21 02:17:22;;;;;;;;;0.00;0.00;;;;;14.61;54.52;99550.59;5097154;27;45403;-65
2021/10/21 02:19:48;;;;;;;;;0.00;0.00;;;;;14.57;53.91;99524.41;5096382;27;45297;-65
2021/10/21 02:22:13;;;;;;;;;0.00;0.00;;;;;14.53;54.04;99523.69;5090339;27;45322;-65
2021/10/21 02:24:39;;;;;;;;;0.50;0.00;;;;;14.46;53.78;99540.78;5091451;27;45286;-65
2021/10/21 02:27:04;;;;;;;;;1.00;0.00;;;;;14.50;54.04;99534.41;5106925;27;46591;-65
2021/10/21 02:29:30;;;;;;;;;0.25;0.00;;;;;14.47;53.92;99556.56;5113059;27;45310;-65
2021/10/21 02:31:55;;;;;;;;;1.25;0.00;;;;;14.45;53.58;99676.50;5088963;27;45354;-65
2021/10/21 02:34:20;;;;;;;;;0.00;0.00;;;;;14.42;53.85;99570.94;5097221;27;45318;-65
2021/10/21 02:36:46;;;;;;;;;0.00;0.00;;;;;14.41;53.53;99609.72;5089985;27;46033;-65
2021/10/21 02:39:11;;;;;;;;;0.25;0.25;;;;;14.43;53.52;99614.94;5092602;27;45350;-65
2021/10/21 02:41:36;;;;;;;;;0.00;0.00;;;;;14.41;53.38;99628.22;5097033;27;45260;-65
2021/10/21 02:44:02;;;;;;;;;0.00;0.00;;;;;14.37;53.70;99689.25;5094563;27;45483;-65
2021/10/21 02:46:28;;;;;;;;;0.00;0.00;;;;;14.38;53.93;99661.88;5089730;27;45378;-65
2021/10/21 02:48:53;;;;;;;;;0.25;0.00;;;;;14.41;53.35;99653.81;5098907;27;45397;-65
2021/10/21 02:51:18;;;;;;;;;0.00;0.00;;;;;14.43;53.39;99657.25;5099151;27;45309;-65
2021/10/21 02:53:44;;;;;;;;;1.25;0.00;;;;;14.45;53.30;99687.06;5094859;27;45420;-65
2021/10/21 02:56:09;;;;;;;;;0.00;0.00;;;;;14.47;53.39;99693.16;5089692;27;47378;-65
2021/10/21 02:58:34;;;;;;;;;1.00;1.00;;;;;14.46;53.52;99688.78;5091720;27;45311;-65
2021/10/21 03:01:00;;;;;;;;;0.00;0.00;;;;;14.44;53.04;99725.88;5096706;27;45321;-64
2021/10/21 03:03:25;;;;;;;;;0.00;0.00;;;;;14.37;53.09;99726.25;5094320;27;45458;-65
2021/10/21 03:05:50;;;;;;;;;0.00;0.00;;;;;14.38;53.06;99728.81;5089647;27;46212;-65
2021/10/21 03:08:16;;;;;;;;;0.75;0.00;;;;;14.38;53.60;99780.81;5092304;27;45236;-65
2021/10/21 03:10:41;;;;;;;;;1.25;0.00;;;;;14.33;52.83;99737.88;5096713;27;45245;-66
2021/10/21 03:13:07;;;;;;;;;1.25;0.00;;;;;14.30;53.08;99783.78;5093602;27;45456;-66
2021/10/21 03:15:32;;;;;;;;;0.00;0.00;;;;;14.29;52.72;99819.94;5085131;27;45362;-65
2021/10/21 03:17:57;;;;;;;;;1.00;0.00;;;;;14.25;53.28;99823.66;5092528;27;45174;-65
2021/10/21 03:20:23;;;;;;;;;1.00;0.50;;;;;14.26;52.81;99849.16;5088565;27;45341;-65
2021/10/21 03:22:49;;;;;;;;;0.00;0.00;;;;;14.27;52.92;99832.34;5092671;27;45224;-65
2021/10/21 03:25:14;;;;;;;;;1.50;0.00;;;;;14.26;52.69;99893.19;5096080;27;45268;-66
2021/10/21 03:27:40;;;;;;;;;1.50;0.00;;;;;14.26;52.42;99902.00;5102847;27;45247;-65
2021/10/21 03:30:08;;;;;;;;;2.00;0.00;;;;;14.22;52.77;99916.25;5104241;27;45219;-65
2021/10/21 03:32:33;;;;;;;;;1.00;0.00;;;;;14.19;52.52;99908.47;5092663;27;45232;-66
2021/10/21 03:34:59;;;;;;;;;0.00;0.00;;;;;14.20;52.82;99955.09;5095854;27;46923;-65
2021/10/21 03:37:25;;;;;;;;;1.00;1.00;;;;;14.20;52.69;100015.00;5092967;27;45674;-66
2021/10/21 03:39:50;;;;;;;;;4.50;1.00;;;;;14.13;52.08;100011.75;5096291;27;45259;-66
2021/10/21 03:42:17;;;;;;;;;1.00;1.00;;;;;14.11;52.33;99995.09;5092133;27;45335;-66
2021/10/21 03:44:43;;;;;;;;;0.00;0.00;;;;;14.12;52.49;100018.84;5088917;27;45408;-65
2021/10/21 03:47:09;;;;;;;;;0.00;0.00;;;;;14.11;52.36;100034.72;5092582;27;45399;-66
2021/10/21 03:49:35;;;;;;;;;2.25;1.00;;;;;14.11;52.18;100032.09;5099556;27;45310;-66
2021/10/21 03:52:00;;;;;;;;;1.00;0.00;;;;;14.12;52.00;100073.44;5092261;27;45512;-66
2021/10/21 03:54:26;;;;;;;;;2.00;0.00;;;;;14.08;51.91;100085.06;5095987;27;46110;-65
2021/10/21 03:56:51;;;;;;;;;2.25;0.75;;;;;14.04;52.16;100115.16;5091948;27;45413;-66
2021/10/21 03:59:16;;;;;;;;;0.25;0.00;;;;;14.01;51.97;100112.63;5088988;27;45483;-65
2021/10/21 04:01:42;;;;;;;;;2.00;0.00;;;;;13.97;51.78;100138.28;5092335;27;45390;-66
2021/10/21 04:04:07;;;;;;;;;2.50;0.25;;;;;13.90;52.25;100144.72;5098906;27;46254;-66
2021/10/21 04:06:33;;;;;;;;;0.00;0.00;;;;;13.86;52.01;100154.56;5092441;27;45369;-66
2021/10/21 04:08:58;;;;;;;;;1.50;0.00;;;;;13.80;52.13;100184.69;5094469;27;45509;-67
2021/10/21 04:11:24;;;;;;;;;2.00;1.00;;;;;13.74;52.03;100179.63;5092214;27;45216;-66
2021/10/21 04:13:49;;;;;;;;;0.00;0.00;;;;;13.72;52.39;100215.81;5088206;27;45961;-66
2021/10/21 04:16:14;;;;;;;;;1.00;1.00;;;;;13.69;52.50;100221.19;5092193;27;45385;-66
2021/10/21 04:18:40;;;;;;;;;1.00;0.75;;;;;13.67;52.55;100230.91;5095705;27;45419;-66
2021/10/21 04:21:05;;;;;;;;;2.00;0.50;;;;;13.62;52.58;100261.91;5091635;27;45374;-66
2021/10/21 04:23:30;;;;;;;;;1.25;0.00;;;;;13.57;52.46;100227.75;5088333;27;45434;-66
2021/10/21 04:25:56;;;;;;;;;0.00;0.00;;;;;13.54;52.58;100213.81;5090935;27;45319;-66
2021/10/21 04:28:21;;;;;;;;;0.00;0.00;;;;;13.56;52.36;100230.44;5111604;27;45314;-66
2021/10/21 04:30:46;;;;;;;;;0.00;0.00;;;;;13.54;52.30;100227.84;5093624;27;45453;-66
2021/10/21 04:33:12;;;;;;;;;1.25;0.25;;;;;13.50;52.88;100231.53;5095060;27;45860;-65
2021/10/21 04:35:37;;;;;;;;;3.50;0.25;;;;;13.47;52.38;100252.72;5097120;27;45176;-66
2021/10/21 04:38:02;;;;;;;;;0.25;0.25;;;;;13.46;52.46;100253.66;5087185;27;45355;-66
2021/10/21 04:40:28;;;;;;;;;0.00;0.00;;;;;13.43;52.30;100249.34;5093334;27;45270;-66
2021/10/21 04:42:54;;;;;;;;;0.00;0.00;;;;;13.46;52.21;100251.03;5093317;27;46262;-66
2021/10/21 04:45:19;;;;;;;;;0.50;0.00;;;;;13.46;52.40;100291.47;5090342;27;45185;-66
2021/10/21 04:47:45;;;;;;;;;2.50;1.00;;;;;13.47;52.73;100264.16;5088318;27;45298;-66
2021/10/21 04:50:10;;;;;;;;;1.25;0.25;;;;;13.46;52.67;100293.25;5101871;27;45315;-66
2021/10/21 04:52:37;;;;;;;;;1.25;1.25;;;;;13.46;52.68;100287.97;5087761;27;45303;-67
2021/10/21 04:55:05;;;;;;;;;0.00;0.00;;;;;13.47;52.80;100300.25;5092892;27;45373;-66
2021/10/21 04:57:30;;;;;;;;;1.00;0.25;;;;;13.44;52.69;100309.13;5094447;27;45294;-66
2021/10/21 04:59:56;;;;;;;;;4.25;0.75;;;;;13.47;52.75;100321.34;5088587;27;45454;-66
2021/10/21 05:02:21;;;;;;;;;1.00;1.00;;;;;13.47;52.97;100322.22;5087259;27;46239;-66
2021/10/21 05:04:47;;;;;;;;;2.00;2.00;;;;;13.47;53.04;100346.00;5092413;27;45306;-66
2021/10/21 05:07:12;;;;;;;;;2.00;0.00;;;;;13.41;52.96;100327.72;5094625;27;45280;-66
2021/10/21 05:09:37;;;;;;;;;0.25;0.00;;;;;13.43;53.26;100344.38;5089695;27;45146;-67
2021/10/21 05:12:03;;;;;;;;;1.00;1.00;;;;;13.39;53.51;100366.47;5087338;27;45417;-66
2021/10/21 05:14:28;;;;;;;;;0.25;0.00;;;;;13.37;53.22;100356.84;5092734;27;45240;-65
2021/10/21 05:16:53;;;;;;;;;1.00;0.75;;;;;13.30;53.49;100372.88;5094260;27;45245;-67
2021/10/21 05:19:19;;;;;;;;;4.50;1.50;;;;;13.27;53.29;100374.75;5089570;27;45232;-64
2021/10/21 05:21:44;;;;;;;;;1.00;1.00;;;;;13.24;53.58;100388.03;5099322;27;45390;-64
2021/10/21 05:24:09;;;;;;;;;0.50;0.00;;;;;13.24;53.63;100394.16;5089425;27;45152;-66
2021/10/21 05:26:35;;;;;;;;;3.00;1.25;;;;;13.24;53.65;100396.81;5087741;27;45722;-66
2021/10/21 05:29:00;;;;;;;;;2.75;2.00;;;;;13.21;53.14;100399.56;5114229;27;45296;-66
2021/10/21 05:31:25;;;;;;;;;2.75;1.75;;;;;13.21;53.16;100407.47;5087335;27;46250;-66
2021/10/21 05:33:51;;;;;;;;;3.75;1.25;;;;;13.21;53.26;100401.34;5094410;27;45408;-67
2021/10/21 05:36:16;;;;;;;;;2.00;1.00;;;;;13.20;53.45;100405.75;5100496;27;45161;-65
2021/10/21 05:38:41;;;;;;;;;1.25;1.00;;;;;13.19;53.20;100406.66;5088586;27;45297;-66
2021/10/21 05:41:07;;;;;;;;;1.00;1.00;;;;;13.14;53.42;100420.00;5087046;27;45568;-68
2021/10/21 05:43:33;;;;;;;;;2.25;2.25;;;;;13.13;53.14;100415.63;5092236;27;45380;-70
2021/10/21 05:45:58;;;;;;;;;2.00;2.00;;;;;13.16;53.47;100438.41;5093796;27;45507;-66
2021/10/21 05:48:23;;;;;;;;;2.25;2.00;;;;;13.11;53.49;100430.63;5088262;27;45442;-68
2021/10/21 05:50:49;;;;;;;;;1.00;1.00;;;;;13.11;53.32;100427.97;5099363;27;46465;-66
2021/10/21 05:53:14;;;;;;;;;0.00;0.00;;;;;13.17;53.42;100435.72;5088312;27;45331;-64
2021/10/21 05:55:40;;;;;;;;;2.00;0.00;;;;;13.14;53.76;100430.53;5086921;27;45250;-65
2021/10/21 05:58:05;;;;;;;;;2.00;1.75;;;;;13.15;53.45;100432.25;5092639;27;45326;-65
2021/10/21 06:00:31;;;;;;;;;1.25;1.25;;;;;13.12;53.80;100437.63;5080023;27;46537;-66
2021/10/21 06:02:56;;;;;;;;;4.00;2.75;;;;;13.13;53.61;100436.72;5092431;27;45308;-74
2021/10/21 06:05:23;;;;;;;;;3.00;2.00;;;;;13.13;53.61;100441.13;5093737;27;45314;-70
2021/10/21 06:07:51;;;;;;;;;4.00;2.00;;;;;13.10;53.70;100441.22;5088825;27;45645;-71
2021/10/21 06:10:17;;;;;;;;;1.00;1.00;;;;;13.10;54.03;100444.72;5086602;27;45339;-68
2021/10/21 06:12:44;;;;;;;;;2.00;1.25;;;;;13.11;54.27;100461.44;5091098;27;45371;-68
2021/10/21 06:15:13;;;;;;;;;3.00;2.25;;;;;13.13;54.24;100464.88;5093638;27;45255;-67
2021/10/21 06:17:41;;;;;;;;;2.00;2.00;;;;;13.10;54.10;100484.28;5089106;27;45399;-70
2021/10/21 06:20:10;;;;;;;;;4.00;2.75;;;;;13.12;54.53;100474.56;5086332;27;46027;-68
2021/10/21 06:22:36;;;;;;;;;3.00;1.00;;;;;13.15;54.22;100484.16;5089654;27;45351;-50
2021/10/21 06:25:03;;;;;;;;;4.00;1.25;;;;;13.11;54.49;100482.53;5092103;27;45327;-47
2021/10/21 06:27:29;;;;;;;;;2.75;1.00;;;;;13.09;54.87;100479.06;5098354;27;45489;-51
2021/10/21 06:29:54;;;;;;;;;3.00;2.00;;;;;13.06;54.77;100468.63;5104653;27;46897;-51
2021/10/21 06:32:19;;;;;;;;;3.25;2.00;;;;;13.10;54.64;100486.94;5087839;27;45203;-49
2021/10/21 06:34:45;;;;;;;;;3.50;2.75;;;;;13.04;55.45;100473.91;5093539;27;45359;-49
2021/10/21 06:37:10;;;;;;;;;3.00;2.25;;;;;13.06;55.35;100468.63;5090517;27;45769;-50
2021/10/21 06:39:35;;;;;;;;;3.25;1.00;;;;;12.99;55.09;100489.88;5091392;27;45520;-48
2021/10/21 06:42:01;;;;;;;;;3.75;1.50;;;;;13.00;55.55;100483.72;5086232;27;45253;-50
2021/10/21 06:44:26;;;;;;;;;4.00;3.25;;;;;13.01;55.18;100479.28;5086346;27;45161;-48
2021/10/21 06:46:52;;;;;;;;;2.25;2.25;;;;;12.97;55.66;100510.16;5091294;27;45379;-51
2021/10/21 06:49:17;;;;;;;;;3.00;3.00;;;;;12.97;55.30;100510.16;5093918;27;46229;-50
2021/10/21 06:51:42;;;;;;;;;3.75;2.00;;;;;12.93;55.75;100505.88;5092390;27;45361;-47
2021/10/21 06:54:08;;;;;;;;;3.00;2.00;;;;;12.95;55.58;100508.47;5093458;27;45251;-48
2021/10/21 06:56:33;;;;;;;;;2.00;2.00;;;;;12.90;55.71;100511.22;5090395;27;45363;-48
2021/10/21 06:58:59;;;;;;;;;4.00;2.00;;;;;12.90;55.97;100524.41;5089662;27;45394;-47
2021/10/21 07:01:24;;;;;;;;;5.25;2.50;;;;;12.90;55.87;100549.94;5094074;27;45494;-49
2021/10/21 07:03:49;;;;;;;;;2.00;2.00;;;;;12.87;55.83;100558.78;5096640;27;45286;-50
2021/10/21 07:06:15;;;;;;;;;3.25;1.00;;;;;12.87;55.78;100545.59;5091039;27;45311;-50
2021/10/21 07:08:40;;;;;;;;;2.25;2.25;;;;;12.83;56.25;100544.81;5089705;27;45232;-47
2021/10/21 07:11:06;;;;;;;;;3.75;3.00;;;;;12.81;56.40;100580.06;5103304;27;45330;-49
2021/10/21 07:13:32;;;;;;;;;2.50;1.00;;;;;12.80;56.33;100563.38;5088190;27;45344;-51
2021/10/21 07:15:57;;;;;;;;;2.75;1.50;;;;;12.80;56.39;100557.22;5094431;27;45244;-48
2021/10/21 07:18:23;;;;;;;;;2.00;1.00;;;;;12.82;56.06;100565.97;5096484;27;45428;-47
2021/10/21 07:20:48;;;;;;;;;1.00;1.00;;;;;12.84;56.32;100577.31;5091120;27;45299;-47
2021/10/21 07:23:13;;;;;;;;;2.25;0.75;;;;;12.80;56.37;100565.13;5089561;27;45512;-50
2021/10/21 07:25:39;;;;;;;;;5.25;3.50;;;;;12.77;56.56;100566.06;5094608;27;45223;-47
2021/10/21 07:28:04;;;;;;;;;3.25;2.50;;;;;12.77;56.19;100558.16;5097557;27;45355;-51
2021/10/21 07:30:30;;;;;;;;;2.00;1.25;;;;;12.81;56.45;100590.59;5096777;27;45186;-52
2021/10/21 07:32:58;;;;;;;;;4.00;1.00;;;;;12.74;56.59;100582.00;5095702;27;45209;-46
2021/10/21 07:35:24;;;;;;;;;2.25;1.00;;;;;12.75;56.80;100575.78;5096055;27;45341;-50
2021/10/21 07:37:50;;;;;;;;;3.75;2.25;;;;;12.77;56.95;100589.81;5088923;27;47026;-49
2021/10/21 07:40:15;;;;;;;;;7.00;2.50;;;;;12.75;56.63;100603.94;5089399;27;45346;-48
2021/10/21 07:42:42;;;;;;;;;3.75;2.00;;;;;12.77;56.63;100596.88;5089029;27;45427;-50
2021/10/21 07:45:09;;;;;;;;;4.00;3.00;;;;;12.80;56.55;100608.19;5089305;27;45597;-49
2021/10/21 07:47:35;;;;;;;;;4.00;2.25;;;;;12.80;56.74;100620.50;5088960;27;45173;-48
2021/10/21 07:50:03;;;;;;;;;4.50;1.75;;;;;12.80;56.88;100604.69;5102646;27;45420;-49
2021/10/21 07:52:29;;;;;;;;;3.00;1.00;;;;;12.82;56.83;100622.19;5087720;27;45330;-50
2021/10/21 07:54:54;;;;;;;;;4.25;2.50;;;;;12.84;57.06;100622.16;5094652;27;45350;-51
2021/10/21 07:57:21;;;;;;;;;0.00;0.00;;;;;12.86;57.00;100619.50;5095429;27;45512;-50
2021/10/21 07:59:47;;;;;;;;;5.25;2.50;;;;;12.83;57.08;100639.75;5089131;27;45319;-51
2021/10/21 08:02:14;;;;;;;;;4.00;2.00;;;;;12.84;57.22;100632.69;5088771;27;45431;-51
2021/10/21 08:04:39;;;;;;;;;2.75;0.00;;;;;12.83;57.24;100646.81;5092836;27;45458;-51
2021/10/21 08:07:05;;;;;;;;;5.00;3.00;;;;;12.87;57.21;100637.91;5095175;27;45425;-50
2021/10/21 08:09:31;;;;;;;;;3.75;3.00;;;;;12.92;57.06;100638.66;5090402;27;45227;-50
2021/10/21 08:12:03;;;;;;;;;7.25;4.75;;;;;12.92;56.96;100643.06;5087016;27;45268;-55
2021/10/21 08:14:29;;;;;;;;;6.50;2.50;;;;;12.97;57.35;100639.41;5093055;27;45374;-53
2021/10/21 08:16:58;;;;;;;;;3.00;1.75;;;;;13.02;56.75;100641.94;5095086;27;45964;-50
2021/10/21 08:19:24;;;;;;;;;2.00;2.00;;;;;13.01;57.26;100641.03;5091223;27;45361;-51
2021/10/21 08:21:50;;;;;;;;;6.25;3.75;;;;;13.08;57.00;100656.72;5088542;27;45378;-50
2021/10/21 08:24:18;;;;;;;;;6.00;1.00;;;;;13.12;56.96;100642.56;5091232;27;46012;-49
2021/10/21 08:26:44;;;;;;;;;6.50;3.50;;;;;13.17;57.08;100673.19;5098387;27;45329;-50
2021/10/21 08:29:10;;;;;;;;;4.00;3.00;;;;;13.19;57.04;100659.94;5113794;27;45384;-51
2021/10/21 08:31:35;;;;;;;;;3.00;3.00;;;;;13.23;56.72;100661.63;5088375;27;45299;-51
2021/10/21 08:34:02;;;;;;;;;3.50;2.75;;;;;13.26;56.80;100661.53;5095180;27;45520;-51
2021/10/21 08:36:28;;;;;;;;;4.75;3.00;;;;;13.33;56.82;100649.00;5100083;27;45382;-51
2021/10/21 08:38:54;;;;;;;;;3.25;2.25;;;;;13.36;56.78;100662.16;5090176;27;45338;-53
2021/10/21 08:41:24;;;;;;;;;4.00;4.00;;;;;13.46;56.51;100678.63;5086926;27;45564;-50
2021/10/21 08:43:51;;;;;;;;;4.50;3.00;;;;;13.54;56.32;100686.34;5091756;27;45262;-53
2021/10/21 08:46:25;;;;;;;;;5.00;3.00;;;;;13.59;56.50;100671.25;5093561;27;47284;-52
2021/10/21 08:48:59;;;;;;;;;6.50;3.00;;;;;13.63;56.42;100680.78;5092058;27;45259;-49
2021/10/21 08:51:34;;;;;;;;;5.75;1.50;;;;;13.62;56.18;100658.81;5095215;27;45308;-54
2021/10/21 08:54:04;;;;;;;;;2.50;1.50;;;;;13.79;56.27;100665.41;5094686;27;45470;-49
2021/10/21 08:56:30;;;;;;;;;5.50;3.75;;;;;13.87;55.90;100668.66;5088104;27;45524;-50
2021/10/21 08:58:57;;;;;;;;;2.50;2.00;;;;;13.96;56.16;100676.34;5087515;27;45288;-49
2021/10/21 09:01:34;;;;;;;;;3.00;3.00;;;;;14.01;56.12;100676.19;5093979;27;45447;-52
2021/10/21 09:09:25;;;;;;;;;8.00;4.75;;;;;14.25;56.14;100676.34;5087770;27;45437;-52
2021/10/21 09:12:14;;;;;;;;;3.00;2.75;;;;;14.31;55.84;100670.88;5087265;27;45269;-50
2021/10/21 09:14:40;;;;;;;;;7.00;3.75;;;;;14.44;55.51;100677.53;5090348;27;45386;-50
2021/10/21 09:17:08;;;;;;;;;5.00;2.00;;;;;14.49;55.53;100682.69;5093240;27;46054;-52
2021/10/21 09:19:35;;;;;;;;;3.25;3.00;;;;;14.57;55.59;100663.94;5092129;27;45330;-53
2021/10/21 09:22:01;;;;;;;;;2.75;2.75;;;;;14.63;55.60;100664.59;5087548;27;45332;-50
2021/10/21 09:24:32;;;;;;;;;5.25;1.00;;;;;14.72;54.99;100659.97;5089219;27;45475;-51
2021/10/21 09:26:59;;;;;;;;;5.25;2.00;;;;;14.80;55.06;100665.84;5097789;27;46155;-50
2021/10/21 09:29:25;;;;;;;;;3.00;1.00;;;;;14.84;54.71;100662.22;5100950;27;45332;-50
2021/10/21 09:32:13;;;;;;;;;5.25;2.25;;;;;14.94;54.96;100673.31;5087141;27;45319;-54
2021/10/21 09:35:01;;;;;;;;;2.00;1.00;;;;;15.02;54.55;100670.41;5094205;27;45227;-51
2021/10/21 09:37:28;;;;;;;;;3.50;1.50;;;;;15.08;54.47;100667.56;5090699;27;47052;-50
2021/10/21 09:40:00;;;;;;;;;5.00;2.00;;;;;15.16;54.43;100667.31;5083935;27;45349;-48
2021/10/21 09:42:28;;;;;;;;;0.50;0.50;;;;;15.24;54.36;100673.19;5089183;27;45315;-48
2021/10/21 09:45:13;;;;;;;;;4.25;0.75;;;;;15.35;54.00;100675.50;5093866;27;45333;-51
2021/10/21 09:47:43;;;;;;;;;3.00;0.75;;;;;15.43;54.44;100689.31;5093638;27;47111;-50
2021/10/21 09:50:39;;;;;;;;;2.25;2.00;;;;;15.56;54.25;100681.81;5097499;27;45303;-52
2021/10/21 09:53:20;;;;;;;;;1.00;1.00;;;;;15.65;54.10;100681.47;5086039;27;45251;-53
2021/10/21 09:55:46;;;;;;;;;0.75;0.00;;;;;15.76;53.84;100679.28;5086852;27;45240;-52
2021/10/21 09:58:13;;;;;;;;;4.00;0.75;;;;;15.85;53.74;100685.22;5091935;27;46005;-50
2021/10/21 10:00:41;;;;;;;;;3.75;1.50;;;;;15.92;53.76;100660.19;5093428;27;45279;-50
2021/10/21 10:03:08;;;;;;;;;1.25;1.25;;;;;16.00;53.78;100662.53;5088649;27;45279;-51
2021/10/21 10:05:34;;;;;;;;;1.00;0.00;;;;;16.06;53.34;100657.91;5086719;27;45426;-48
2021/10/21 10:07:59;;;;;;;;;1.00;1.00;;;;;16.18;53.11;100664.50;5090004;27;46564;-49
2021/10/21 10:10:25;;;;;;;;;2.75;1.00;;;;;16.27;53.38;100673.03;5095489;27;45406;-50
2021/10/21 10:12:50;;;;;;;;;7.50;1.75;;;;;16.40;53.01;100674.25;5090427;27;45499;-53
2021/10/21 10:15:16;;;;;;;;;77.00;65.25;;;;;16.51;53.18;100690.59;5092832;27;45384;-50
2021/10/21 10:17:41;;;;;;;;;86.33;69.67;;;;;16.54;53.08;100665.75;5088683;27;46165;-51
2021/10/21 10:20:08;;;;;;;;;57.25;47.00;;;;;16.66;53.02;100669.72;5084067;27;45224;-52
2021/10/21 10:22:36;;;;;;;;;2.00;1.00;;;;;16.75;52.51;100674.63;5079989;27;45220;-51
2021/10/21 10:25:16;;;;;;;;;1.50;0.75;;;;;16.82;52.48;100668.16;5093351;27;45459;-51
2021/10/21 10:27:54;;;;;;;;;2.75;0.75;;;;;16.93;52.44;100688.09;5090251;27;47029;-53
2021/10/21 10:30:51;;;;;;;;;1.00;1.00;;;;;17.01;52.25;100680.69;5098234;27;45342;-49
2021/10/21 10:33:31;;;;;;;;;2.00;2.00;;;;;17.08;51.85;100654.75;5080098;27;45525;-50
2021/10/21 10:36:30;;;;;;;;;1.00;1.00;;;;;17.11;52.01;100668.75;5100216;27;45624;-50
2021/10/21 10:39:06;;;;;;;;;1.00;0.00;;;;;17.15;51.64;100691.56;5092556;27;46483;-53
2021/10/21 10:41:41;;;;;;;;;3.75;1.50;;;;;17.16;51.61;100664.09;5089808;27;45345;-51
2021/10/21 10:44:27;;;;;;;;;4.00;0.75;;;;;17.15;51.64;100646.44;5091371;27;45445;-51
2021/10/21 10:46:53;;;;;;;;;3.00;1.00;;;;;17.16;51.62;100647.31;5049423;27;45492;-50
2021/10/21 10:49:37;;;;;;;;;2.50;1.00;;;;;17.27;51.45;100657.47;5098375;27;46388;-52
2021/10/21 10:52:09;;;;;;;;;1.75;1.75;;;;;17.22;51.48;100663.00;5092298;27;45414;-51
2021/10/21 10:54:46;;;;;;;;;3.00;1.00;;;;;17.20;51.32;100671.00;5096626;27;45347;-52
2021/10/21 10:57:24;;;;;;;;;0.75;0.75;;;;;17.18;51.52;100667.56;5096303;27;45487;-50
2021/10/21 10:59:57;;;;;;;;;1.50;0.25;;;;;17.17;51.65;100679.09;5091586;27;46253;-48
2021/10/21 11:02:22;;;;;;;;;4.00;1.00;;;;;17.14;51.87;100675.72;5089401;27;45405;-49
2021/10/21 11:04:51;;;;;;;;;1.50;1.00;;;;;17.08;51.58;100676.84;5093643;27;45395;-52
2021/10/21 11:07:17;;;;;;;;;2.50;2.50;;;;;17.02;51.80;100672.66;5096266;27;45309;-51
2021/10/21 11:09:44;;;;;;;;;0.25;0.00;;;;;16.95;52.13;100694.22;5091890;27;46139;-50
2021/10/21 11:12:12;;;;;;;;;1.00;1.00;;;;;16.85;52.30;100668.00;5088968;27;45335;-50
2021/10/21 11:14:44;;;;;;;;;4.00;0.75;;;;;16.77;52.44;100678.09;5101618;27;45479;-51
2021/10/21 11:17:12;;;;;;;;;1.00;1.00;;;;;16.71;52.23;100650.00;5097920;27;45535;-52
2021/10/21 11:19:44;;;;;;;;;2.00;0.50;;;;;16.66;52.43;100656.44;5094639;27;45379;-49
2021/10/21 11:22:30;;;;;;;;;0.75;0.75;;;;;16.61;52.86;100661.06;5089222;27;45312;-49
2021/10/21 11:24:59;;;;;;;;;1.00;0.50;;;;;16.57;52.54;100657.69;5078002;27;45528;-51
2021/10/21 11:27:28;;;;;;;;;2.25;1.00;;;;;16.54;52.74;100660.44;5101436;27;45348;-51
2021/10/21 11:29:59;;;;;;;;;3.50;1.50;;;;;16.50;52.66;100646.47;5101578;27;46179;-52
2021/10/21 11:32:31;;;;;;;;;2.00;1.00;;;;;16.50;52.66;100649.13;5090771;27;45326;-50